createdAt,value
2022-10-06T00:01:04.674Z,10.33
2022-10-06T00:03:31.787Z,7.40
2022-10-06T00:06:04.964Z,6.50
2022-10-06T00:08:32.615Z,6.90
2022-10-06T00:10:59.886Z,6.10
2022-10-06T00:13:27.219Z,7.47
2022-10-06T00:15:54.340Z,6.40
2022-10-06T00:18:21.505Z,7.10
2022-10-06T00:20:55.797Z,6.07
2022-10-06T00:23:23.044Z,7.03
2022-10-06T00:25:50.324Z,6.60
2022-10-06T00:28:17.438Z,6.10
2022-10-06T00:30:46.174Z,6.63
2022-10-06T00:33:17.077Z,6.70
2022-10-06T00:35:44.193Z,6.60
2022-10-06T00:38:12.095Z,6.47
2022-10-06T00:40:43.716Z,6.30
2022-10-06T00:43:29.840Z,6.73
2022-10-06T00:45:56.978Z,7.00
2022-10-06T00:48:24.547Z,6.60
2022-10-06T00:50:54.447Z,6.20
2022-10-06T00:53:21.770Z,6.83
2022-10-06T00:55:49.781Z,6.53
2022-10-06T00:58:17.039Z,6.20
2022-10-06T01:00:44.131Z,5.90
2022-10-06T01:03:12.629Z,8.93
2022-10-06T01:05:44.022Z,5.33
2022-10-06T01:08:11.138Z,6.47
2022-10-06T01:10:38.251Z,6.10
2022-10-06T01:13:06.069Z,6.20
2022-10-06T01:15:34.061Z,5.87
2022-10-06T01:18:02.422Z,5.30
2022-10-06T01:20:29.967Z,6.37
2022-10-06T01:22:58.310Z,5.77
2022-10-06T01:25:25.379Z,6.80
2022-10-06T01:27:53.827Z,5.27
2022-10-06T01:30:31.339Z,7.03
2022-10-06T01:32:58.466Z,5.50
2022-10-06T01:35:25.922Z,5.40
2022-10-06T01:37:54.737Z,6.30
2022-10-06T01:40:21.910Z,6.23
2022-10-06T01:42:49.273Z,4.90
2022-10-06T01:45:16.494Z,6.43
2022-10-06T01:47:43.802Z,5.67
2022-10-06T01:50:10.985Z,6.27
2022-10-06T01:52:38.032Z,5.47
2022-10-06T01:55:05.435Z,5.47
2022-10-06T01:57:32.585Z,5.93
2022-10-06T01:59:59.744Z,5.77
2022-10-06T02:02:26.815Z,5.70
2022-10-06T02:04:54.003Z,5.03
2022-10-06T02:07:21.110Z,4.00
2022-10-06T02:09:48.294Z,4.13
2022-10-06T02:12:15.971Z,4.23
2022-10-06T02:14:43.252Z,5.20
2022-10-06T02:17:10.650Z,5.40
2022-10-06T02:19:37.751Z,4.40
2022-10-06T02:22:04.912Z,5.00
2022-10-06T02:24:32.001Z,5.70
2022-10-06T02:26:59.135Z,4.10
2022-10-06T02:29:26.206Z,4.30
2022-10-06T02:31:54.536Z,4.20
2022-10-06T02:34:21.562Z,3.30
2022-10-06T02:36:48.605Z,4.03
2022-10-06T02:39:15.818Z,3.23
2022-10-06T02:41:42.876Z,5.73
2022-10-06T02:44:10.033Z,4.20
2022-10-06T02:46:37.253Z,4.87
2022-10-06T02:49:04.319Z,2.90
2022-10-06T02:51:32.721Z,3.23
2022-10-06T02:53:59.863Z,5.20
2022-10-06T02:56:26.975Z,3.00
2022-10-06T02:58:54.353Z,4.10
2022-10-06T03:01:22.513Z,5.97
2022-10-06T03:03:49.671Z,3.07
2022-10-06T03:06:23.891Z,2.70
2022-10-06T03:08:50.963Z,2.83
2022-10-06T03:11:19.501Z,3.67
2022-10-06T03:17:15.810Z,2.50
2022-10-06T03:19:44.715Z,3.37
2022-10-06T03:22:11.840Z,2.87
2022-10-06T03:24:38.905Z,3.90
2022-10-06T03:27:05.983Z,2.90
2022-10-06T03:29:34.119Z,3.30
2022-10-06T03:32:01.305Z,3.83
2022-10-06T03:34:28.494Z,3.40
2022-10-06T03:36:55.667Z,3.50
2022-10-06T03:39:22.872Z,3.10
2022-10-06T03:41:50.311Z,3.40
2022-10-06T03:44:17.638Z,3.40
2022-10-06T03:46:45.101Z,3.47
2022-10-06T03:49:12.292Z,3.33
2022-10-06T03:51:40.154Z,3.53
2022-10-06T03:54:10.888Z,3.70
2022-10-06T03:56:39.053Z,3.63
2022-10-06T03:59:06.910Z,4.10
2022-10-06T04:01:34.964Z,3.83
2022-10-06T04:04:02.367Z,4.60
2022-10-06T04:06:30.021Z,3.33
2022-10-06T04:08:57.187Z,4.47
2022-10-06T04:11:28.374Z,5.23
2022-10-06T04:13:58.163Z,3.97
2022-10-06T04:16:29.061Z,3.60
2022-10-06T04:18:57.150Z,4.17
2022-10-06T04:21:24.388Z,4.10
2022-10-06T04:23:54.715Z,4.53
2022-10-06T04:26:22.432Z,5.27
2022-10-06T04:28:49.898Z,3.80
2022-10-06T04:31:22.317Z,4.30
2022-10-06T04:33:51.394Z,3.60
2022-10-06T04:36:24.522Z,3.50
2022-10-06T04:38:52.016Z,3.77
2022-10-06T04:41:19.783Z,4.20
2022-10-06T04:43:47.246Z,4.30
2022-10-06T04:46:41.063Z,4.87
2022-10-06T04:49:01.889Z,6.27
2022-10-06T04:51:29.162Z,3.67
2022-10-06T04:53:56.378Z,3.67
2022-10-06T04:56:24.237Z,3.90
2022-10-06T04:58:52.003Z,3.73
2022-10-06T05:01:28.335Z,4.37
2022-10-06T05:03:56.494Z,4.40
2022-10-06T05:06:24.369Z,3.67
2022-10-06T05:08:52.192Z,4.17
2022-10-06T05:11:22.456Z,3.40
2022-10-06T05:13:54.057Z,3.50
2022-10-06T05:16:21.193Z,3.40
2022-10-06T05:18:48.468Z,3.93
2022-10-06T05:21:16.691Z,3.43
2022-10-06T05:23:47.076Z,5.70
2022-10-06T05:26:15.248Z,4.50
2022-10-06T05:28:42.539Z,3.67
2022-10-06T05:31:13.539Z,3.73
2022-10-06T05:33:40.825Z,4.53
2022-10-06T05:36:08.795Z,4.47
2022-10-06T05:38:36.125Z,4.37
2022-10-06T05:41:07.196Z,4.10
2022-10-06T05:43:34.681Z,4.33
2022-10-06T05:46:02.509Z,4.30
2022-10-06T05:48:30.178Z,5.00
2022-10-06T05:51:04.802Z,3.70
2022-10-06T05:53:32.308Z,4.10
2022-10-06T05:56:06.248Z,4.43
2022-10-06T05:58:34.271Z,5.73
2022-10-06T06:01:15.225Z,3.53
2022-10-06T06:03:43.307Z,4.70
2022-10-06T06:06:36.763Z,4.27
2022-10-06T06:09:10.609Z,8.50
2022-10-06T06:11:38.485Z,7.60
2022-10-06T06:14:06.592Z,6.27
2022-10-06T06:16:33.983Z,4.40
2022-10-06T06:19:01.376Z,4.60
2022-10-06T06:21:28.593Z,4.60
2022-10-06T06:23:55.824Z,4.60
2022-10-06T06:26:26.945Z,4.90
2022-10-06T06:28:54.523Z,4.33
2022-10-06T06:31:22.543Z,4.50
2022-10-06T06:33:52.000Z,4.73
2022-10-06T06:36:20.302Z,4.70
2022-10-06T06:38:48.563Z,4.77
2022-10-06T06:41:17.266Z,4.57
2022-10-06T06:43:45.331Z,6.23
2022-10-06T06:46:14.928Z,4.60
2022-10-06T06:48:42.681Z,4.60
2022-10-06T06:51:11.880Z,6.50
2022-10-06T06:53:39.538Z,3.40
2022-10-06T06:56:07.107Z,4.20
2022-10-06T06:58:34.235Z,8.03
2022-10-06T07:01:14.354Z,4.20
2022-10-06T07:03:58.538Z,4.30
2022-10-06T07:06:28.550Z,4.23
2022-10-06T07:08:56.290Z,5.20
2022-10-06T07:11:36.069Z,4.80
2022-10-06T07:14:04.326Z,4.77
2022-10-06T07:16:50.410Z,4.60
2022-10-06T07:19:36.802Z,4.37
2022-10-06T07:22:28.766Z,3.90
2022-10-06T07:25:08.274Z,4.23
2022-10-06T07:27:36.244Z,6.50
2022-10-06T07:30:04.491Z,3.47
2022-10-06T07:32:31.749Z,3.57
2022-10-06T07:34:59.019Z,4.40
2022-10-06T07:37:26.190Z,5.93
2022-10-06T07:39:53.223Z,3.57
2022-10-06T07:42:20.337Z,5.90
2022-10-06T07:45:06.477Z,11.70
2022-10-06T07:47:33.680Z,8.50
2022-10-06T07:50:00.908Z,11.30
2022-10-06T07:52:31.106Z,4.00
2022-10-06T07:54:58.431Z,8.07
2022-10-06T07:57:34.718Z,4.90
2022-10-06T08:00:05.089Z,4.87
2022-10-06T08:02:35.466Z,4.33
2022-10-06T08:05:03.314Z,4.20
2022-10-06T08:07:30.396Z,5.40
2022-10-06T08:09:57.438Z,4.00
2022-10-06T08:12:33.852Z,3.70
2022-10-06T08:15:06.041Z,4.17
2022-10-06T08:17:35.148Z,3.63
2022-10-06T08:20:02.223Z,4.33
2022-10-06T08:22:30.162Z,4.17
2022-10-06T08:25:06.334Z,4.00
2022-10-06T08:27:34.991Z,4.03
2022-10-06T08:30:02.171Z,3.10
2022-10-06T08:32:29.471Z,3.93
2022-10-06T08:34:57.073Z,3.20
2022-10-06T08:37:24.542Z,3.97
2022-10-06T08:39:51.953Z,3.40
2022-10-06T08:42:21.660Z,3.53
2022-10-06T08:44:49.061Z,11.27
2022-10-06T08:47:19.793Z,3.87
2022-10-06T08:49:47.502Z,4.67
2022-10-06T08:52:26.475Z,4.47
2022-10-06T08:55:11.679Z,4.00
2022-10-06T08:57:57.325Z,3.70
2022-10-06T09:00:24.385Z,4.60
2022-10-06T09:02:51.807Z,3.83
2022-10-06T09:05:25.023Z,7.00
2022-10-06T09:08:01.459Z,4.20
2022-10-06T09:10:49.154Z,2.90
2022-10-06T09:13:21.719Z,4.43
2022-10-06T09:16:07.568Z,3.40
2022-10-06T09:19:06.747Z,3.80
2022-10-06T09:21:40.221Z,3.90
2022-10-06T09:24:08.449Z,4.10
2022-10-06T09:26:37.903Z,4.60
2022-10-06T09:29:05.752Z,3.90
2022-10-06T09:31:40.054Z,3.40
2022-10-06T09:34:13.287Z,3.80
2022-10-06T09:37:03.083Z,3.40
2022-10-06T09:39:33.283Z,3.50
2022-10-06T09:42:16.644Z,4.70
2022-10-06T09:44:52.861Z,3.53
2022-10-06T09:47:35.388Z,7.80
2022-10-06T09:50:05.509Z,3.73
2022-10-06T09:52:32.604Z,4.93
2022-10-06T09:55:12.972Z,5.17
2022-10-06T09:57:40.991Z,3.17
2022-10-06T10:00:29.385Z,3.80
2022-10-06T10:03:00.725Z,4.10
2022-10-06T10:05:28.895Z,3.53
2022-10-06T10:08:02.909Z,5.80
2022-10-06T10:10:30.165Z,3.93
2022-10-06T10:12:57.961Z,3.60
2022-10-06T10:15:31.351Z,4.00
2022-10-06T10:17:59.161Z,4.50
2022-10-06T10:20:28.167Z,6.73
2022-10-06T10:22:59.124Z,3.60
2022-10-06T10:25:26.189Z,3.10
2022-10-06T10:27:59.157Z,3.30
2022-10-06T10:30:28.408Z,3.90
2022-10-06T10:32:57.619Z,3.27
2022-10-06T10:35:30.783Z,3.60
2022-10-06T10:38:14.446Z,3.37
2022-10-06T10:40:43.368Z,4.10
2022-10-06T10:43:16.975Z,6.60
2022-10-06T10:45:50.295Z,5.33
2022-10-06T10:48:19.806Z,3.60
2022-10-06T10:50:46.864Z,4.10
2022-10-06T10:53:35.653Z,3.70
2022-10-06T10:56:04.786Z,3.27
2022-10-06T10:58:35.701Z,3.97
2022-10-06T11:01:05.818Z,3.57
2022-10-06T11:03:33.053Z,3.43
2022-10-06T11:06:12.447Z,3.27
2022-10-06T11:08:58.032Z,13.73
2022-10-06T11:11:40.562Z,4.07
2022-10-06T11:14:20.805Z,3.10
2022-10-06T11:17:17.296Z,3.13
2022-10-06T11:19:48.171Z,3.60
2022-10-06T11:22:35.527Z,3.40
2022-10-06T11:25:21.068Z,4.47
2022-10-06T11:27:48.157Z,4.23
2022-10-06T11:30:16.209Z,4.70
2022-10-06T11:32:49.927Z,3.43
2022-10-06T11:35:18.468Z,3.80
2022-10-06T11:37:47.924Z,3.33
2022-10-06T11:40:33.887Z,4.20
2022-10-06T11:43:13.372Z,4.10
2022-10-06T11:45:41.871Z,3.03
2022-10-06T11:48:26.615Z,6.73
2022-10-06T11:50:55.721Z,3.03
2022-10-06T11:53:27.325Z,4.70
2022-10-06T11:56:12.897Z,4.30
2022-10-06T11:58:52.529Z,3.83
2022-10-06T12:01:35.080Z,2.73
2022-10-06T12:04:05.508Z,3.83
2022-10-06T12:06:44.827Z,5.47
2022-10-06T12:09:33.067Z,3.13
2022-10-06T12:12:00.188Z,3.03
2022-10-06T12:16:00.100Z,2.30
2022-10-06T12:17:19.683Z,3.13
2022-10-06T12:19:52.983Z,3.67
2022-10-06T12:22:22.867Z,2.30
2022-10-06T12:24:59.644Z,2.90
2022-10-06T12:27:39.585Z,3.80
2022-10-06T12:30:17.041Z,4.33
2022-10-06T12:32:57.355Z,3.00
2022-10-06T12:35:25.870Z,3.40
2022-10-06T12:37:54.781Z,2.80
2022-10-06T12:40:40.510Z,3.00
2022-10-06T12:43:19.702Z,2.43
2022-10-06T12:45:57.606Z,4.40
2022-10-06T12:48:36.842Z,4.60
2022-10-06T12:51:06.848Z,2.53
2022-10-06T12:53:37.742Z,2.27
2022-10-06T12:56:05.954Z,2.83
2022-10-06T12:58:33.863Z,4.17
2022-10-06T13:01:01.759Z,3.00
2022-10-06T13:03:28.870Z,3.43
2022-10-06T13:05:57.143Z,5.90
2022-10-06T13:08:25.323Z,3.80
2022-10-06T13:10:52.432Z,2.50
2022-10-06T13:13:21.219Z,2.53
2022-10-06T13:15:48.292Z,2.40
2022-10-06T13:18:21.530Z,3.10
2022-10-06T13:20:51.653Z,3.10
2022-10-06T13:23:37.729Z,4.50
2022-10-06T13:26:05.724Z,3.63
2022-10-06T13:28:45.050Z,2.50
2022-10-06T13:31:12.252Z,2.23
2022-10-06T13:33:39.998Z,2.17
2022-10-06T13:36:07.242Z,2.80
2022-10-06T13:38:35.956Z,2.30
2022-10-06T13:41:06.557Z,2.50
2022-10-06T13:43:37.397Z,5.37
2022-10-06T13:46:10.449Z,3.20
2022-10-06T13:48:37.782Z,3.10
2022-10-06T13:51:05.031Z,5.10
2022-10-06T13:53:32.386Z,3.63
2022-10-06T13:55:59.479Z,2.53
2022-10-06T13:58:27.853Z,3.43
2022-10-06T14:00:56.341Z,2.87
2022-10-06T14:03:24.687Z,2.57
2022-10-06T14:05:52.260Z,2.97
2022-10-06T14:08:24.480Z,2.40
2022-10-06T14:10:55.375Z,3.43
2022-10-06T14:13:23.174Z,3.87
2022-10-06T14:16:11.078Z,2.60
2022-10-06T14:18:41.688Z,3.33
2022-10-06T14:21:27.250Z,3.10
2022-10-06T14:23:54.595Z,2.17
2022-10-06T14:26:28.946Z,2.80
2022-10-06T14:28:56.268Z,3.27
2022-10-06T14:31:24.329Z,3.47
2022-10-06T14:33:54.863Z,2.70
2022-10-06T14:36:22.840Z,3.73
2022-10-06T14:38:50.638Z,5.43
2022-10-06T14:41:19.433Z,5.67
2022-10-06T14:43:47.510Z,3.43
2022-10-06T14:46:15.912Z,4.77
2022-10-06T14:48:43.114Z,3.50
2022-10-06T14:51:10.534Z,4.40
2022-10-06T14:53:39.432Z,3.80
2022-10-06T14:56:08.276Z,7.63
2022-10-06T14:58:39.769Z,4.53
2022-10-06T15:01:07.524Z,3.80
2022-10-06T15:03:37.778Z,4.80
2022-10-06T15:06:24.063Z,6.03
2022-10-06T15:08:51.925Z,3.70
2022-10-06T15:11:19.845Z,8.30
2022-10-06T15:13:47.231Z,3.80
2022-10-06T15:16:15.228Z,3.50
2022-10-06T15:18:42.927Z,3.70
2022-10-06T15:21:11.262Z,3.63
2022-10-06T15:23:39.310Z,3.90
2022-10-06T15:26:25.236Z,4.33
2022-10-06T15:29:01.612Z,3.00
2022-10-06T15:31:29.956Z,3.53
2022-10-06T15:33:57.362Z,4.10
2022-10-06T15:36:25.408Z,3.70
2022-10-06T15:38:52.680Z,3.77
2022-10-06T15:41:20.030Z,3.37
2022-10-06T15:43:56.211Z,4.37
2022-10-06T15:46:27.922Z,3.30
2022-10-06T15:48:55.607Z,3.20
2022-10-06T15:51:22.766Z,2.77
2022-10-06T15:53:50.530Z,3.27
2022-10-06T15:56:17.740Z,3.47
2022-10-06T15:58:45.269Z,3.13
2022-10-06T16:01:46.896Z,4.70
2022-10-06T16:04:20.398Z,3.10
2022-10-06T16:06:47.490Z,3.63
2022-10-06T16:09:15.300Z,6.73
2022-10-06T16:11:42.387Z,4.80
2022-10-06T16:14:10.329Z,10.10
2022-10-06T16:16:42.660Z,8.37
2022-10-06T16:19:10.886Z,4.57
2022-10-06T16:21:38.024Z,3.30
2022-10-06T16:24:05.206Z,2.47
2022-10-06T16:26:32.339Z,8.60
2022-10-06T16:28:59.456Z,4.17
2022-10-06T16:31:26.616Z,3.47
2022-10-06T16:33:53.788Z,3.60
2022-10-06T16:36:20.891Z,2.50
2022-10-06T16:38:51.214Z,4.73
2022-10-06T16:41:18.415Z,4.40
2022-10-06T16:43:45.812Z,3.10
2022-10-06T16:46:14.631Z,2.73
2022-10-06T16:48:42.370Z,2.50
2022-10-06T16:51:13.474Z,2.83
2022-10-06T16:53:41.395Z,2.40
2022-10-06T16:56:09.327Z,2.30
2022-10-06T16:58:39.960Z,2.93
2022-10-06T17:01:07.261Z,3.10
2022-10-06T17:03:34.523Z,3.20
2022-10-06T17:06:02.239Z,2.93
2022-10-06T17:08:29.307Z,3.13
2022-10-06T17:11:00.846Z,3.23
2022-10-06T17:13:27.945Z,3.60
2022-10-06T17:15:59.170Z,3.00
2022-10-06T17:18:26.321Z,3.40
2022-10-06T17:20:54.405Z,2.13
2022-10-06T17:23:21.503Z,2.77
2022-10-06T17:25:59.586Z,2.87
2022-10-06T17:28:26.736Z,2.53
2022-10-06T17:30:54.031Z,3.17
2022-10-06T17:33:21.161Z,2.80
2022-10-06T17:35:48.622Z,2.63
2022-10-06T17:38:15.723Z,3.50
2022-10-06T17:40:45.587Z,2.90
2022-10-06T17:43:12.662Z,3.17
2022-10-06T17:45:40.068Z,4.20
2022-10-06T17:48:07.288Z,2.47
2022-10-06T17:50:34.390Z,2.50
2022-10-06T17:53:01.821Z,2.23
2022-10-06T17:55:29.683Z,3.17
2022-10-06T17:57:58.587Z,4.50
2022-10-06T18:00:26.049Z,5.87
2022-10-06T18:03:00.266Z,3.33
2022-10-06T18:05:32.155Z,3.97
2022-10-06T18:08:00.856Z,4.43
2022-10-06T18:10:46.623Z,3.20
2022-10-06T18:13:13.727Z,3.10
2022-10-06T18:15:40.790Z,2.83
2022-10-06T18:18:07.882Z,2.47
2022-10-06T18:20:40.108Z,2.83
2022-10-06T18:23:10.009Z,3.63
2022-10-06T18:25:37.093Z,3.23
2022-10-06T18:28:04.485Z,3.43
2022-10-06T18:30:31.668Z,2.60
2022-10-06T18:36:01.728Z,2.80
2022-10-06T18:38:37.091Z,3.20
2022-10-06T18:41:05.098Z,3.37
2022-10-06T18:43:32.276Z,3.70
2022-10-06T18:46:21.785Z,3.43
2022-10-06T18:48:55.513Z,4.30
2022-10-06T18:51:27.233Z,2.73
2022-10-06T18:53:54.789Z,3.40
2022-10-06T18:56:23.645Z,3.27
2022-10-06T18:58:50.805Z,3.80
2022-10-06T19:01:18.083Z,3.27
2022-10-06T19:03:45.366Z,4.47
2022-10-06T19:06:12.546Z,3.07
2022-10-06T19:08:40.292Z,5.20
2022-10-06T19:11:26.617Z,4.17
2022-10-06T19:13:55.671Z,4.20
2022-10-06T19:16:22.921Z,4.77
2022-10-06T19:18:50.388Z,3.43
2022-10-06T19:21:17.530Z,4.40
2022-10-06T19:23:44.831Z,4.30
2022-10-06T19:26:12.562Z,3.83
2022-10-06T19:28:39.907Z,5.13
2022-10-06T19:31:09.167Z,5.20
2022-10-06T19:33:36.554Z,3.80
2022-10-06T19:36:03.737Z,3.87
2022-10-06T19:38:31.028Z,5.00
2022-10-06T19:41:18.114Z,4.77
2022-10-06T19:43:45.304Z,5.67
2022-10-06T19:46:12.548Z,4.13
2022-10-06T19:48:39.748Z,4.20
2022-10-06T19:51:13.999Z,5.00
2022-10-06T19:53:41.602Z,4.97
2022-10-06T19:56:08.735Z,4.90
2022-10-06T19:58:36.191Z,4.50
2022-10-06T20:01:05.192Z,5.97
2022-10-06T20:03:38.281Z,6.40
2022-10-06T20:06:05.573Z,8.43
2022-10-06T20:08:32.950Z,5.93
2022-10-06T20:11:03.906Z,5.57
2022-10-06T20:13:32.961Z,5.33
2022-10-06T20:16:03.987Z,6.33
2022-10-06T20:18:35.199Z,6.30
2022-10-06T20:21:03.226Z,6.00
2022-10-06T20:23:30.472Z,6.77
2022-10-06T20:26:01.220Z,8.63
2022-10-06T20:28:28.759Z,6.83
2022-10-06T20:30:56.156Z,6.97
2022-10-06T20:33:23.335Z,8.60
2022-10-06T20:35:50.505Z,7.40
2022-10-06T20:38:37.653Z,6.53
2022-10-06T20:41:08.422Z,7.30
2022-10-06T20:43:35.682Z,7.37
2022-10-06T20:46:03.486Z,7.97
2022-10-06T20:48:31.266Z,7.07
2022-10-06T20:50:59.455Z,7.93
2022-10-06T20:53:32.976Z,7.50
2022-10-06T20:56:00.291Z,8.20
2022-10-06T20:58:27.458Z,7.40
2022-10-06T21:00:54.718Z,8.40
2022-10-06T21:03:21.947Z,7.80
2022-10-06T21:05:53.090Z,8.83
2022-10-06T21:08:20.383Z,7.83
2022-10-06T21:10:47.659Z,8.13
2022-10-06T21:13:14.909Z,8.00
2022-10-06T21:15:45.641Z,9.17
2022-10-06T21:18:12.918Z,8.23
2022-10-06T21:20:44.459Z,7.43
2022-10-06T21:23:13.364Z,13.80
2022-10-06T21:25:40.540Z,9.67
2022-10-06T21:28:07.869Z,8.60
2022-10-06T21:30:35.978Z,7.60
2022-10-06T21:33:03.737Z,9.90
2022-10-06T21:35:30.997Z,9.00
2022-10-06T21:37:58.299Z,8.70
2022-10-06T21:40:25.529Z,8.00
2022-10-06T21:42:52.738Z,8.87
2022-10-06T21:45:24.333Z,9.07
2022-10-06T21:47:52.323Z,8.87
2022-10-06T21:50:19.578Z,9.63
2022-10-06T21:52:46.891Z,10.47
2022-10-06T21:55:14.298Z,9.73
2022-10-06T21:57:41.993Z,10.47
2022-10-06T22:00:11.235Z,11.00
2022-10-06T22:02:38.561Z,11.47
2022-10-06T22:05:05.875Z,13.03
2022-10-06T22:07:33.173Z,11.67
2022-10-06T22:10:00.461Z,12.63
2022-10-06T22:12:27.770Z,12.70
2022-10-06T22:14:58.751Z,13.97
2022-10-06T22:17:26.930Z,11.77
2022-10-06T22:19:54.137Z,12.10
2022-10-06T22:22:21.530Z,12.00
2022-10-06T22:24:48.834Z,12.50
2022-10-06T22:27:16.068Z,12.47
2022-10-06T22:29:43.480Z,15.30
2022-10-06T22:32:10.743Z,12.47
2022-10-06T22:34:39.433Z,12.87
2022-10-06T22:37:06.801Z,14.93
2022-10-06T22:39:34.376Z,13.73
2022-10-06T22:42:01.663Z,13.13
2022-10-06T22:44:29.016Z,14.27
2022-10-06T22:46:56.559Z,11.67
2022-10-06T22:49:23.856Z,13.50
2022-10-06T22:51:51.197Z,12.60
2022-10-06T22:54:19.181Z,12.90
2022-10-06T22:56:46.507Z,12.27
2022-10-06T22:59:13.825Z,13.93
2022-10-06T23:01:41.190Z,12.47
2022-10-06T23:04:08.654Z,12.37
2022-10-06T23:06:35.939Z,12.70
2022-10-06T23:09:03.749Z,11.07
2022-10-06T23:11:31.116Z,10.83
2022-10-06T23:13:58.375Z,11.17
2022-10-06T23:16:25.878Z,10.53
2022-10-06T23:18:53.230Z,11.67
2022-10-06T23:21:22.128Z,11.30
2022-10-06T23:23:50.087Z,9.80
2022-10-06T23:26:19.091Z,10.50
2022-10-06T23:28:47.067Z,10.97
2022-10-06T23:31:14.335Z,10.10
2022-10-06T23:33:41.773Z,10.90
2022-10-06T23:36:10.399Z,11.27
2022-10-06T23:38:37.986Z,9.80
2022-10-06T23:41:05.867Z,11.20
2022-10-06T23:43:33.254Z,9.67
2022-10-06T23:46:00.677Z,10.07
2022-10-06T23:48:27.935Z,10.00
2022-10-06T23:51:02.473Z,10.17
2022-10-06T23:53:30.000Z,9.50
2022-10-06T23:55:57.440Z,8.80
2022-10-06T23:58:24.941Z,9.03
